createdAt,value
2022-12-11T00:00:58.046Z,23.35
2022-12-11T00:03:26.174Z,26.27
2022-12-11T00:05:54.461Z,36.85
2022-12-11T00:08:22.586Z,33.88
2022-12-11T00:10:51.103Z,25.27
2022-12-11T00:13:20.570Z,30.42
2022-12-11T00:15:48.628Z,18.38
2022-12-11T00:18:16.829Z,21.45
2022-12-11T00:20:44.947Z,31.38
2022-12-11T00:23:13.334Z,21.45
2022-12-11T00:25:44.061Z,25.23
2022-12-11T00:28:12.393Z,17.92
2022-12-11T00:30:42.870Z,17.40
2022-12-11T00:33:11.765Z,17.92
2022-12-11T00:35:40.474Z,15.40
2022-12-11T00:38:08.919Z,16.13
2022-12-11T00:40:37.427Z,17.67
2022-12-11T00:43:05.732Z,15.63
2022-12-11T00:45:37.752Z,13.77
2022-12-11T00:48:08.978Z,14.20
2022-12-11T00:50:37.983Z,14.18
2022-12-11T00:53:07.426Z,13.48
2022-12-11T00:55:39.170Z,16.50
2022-12-11T00:58:07.456Z,14.27
2022-12-11T01:00:35.752Z,16.50
2022-12-11T01:03:03.907Z,12.23
2022-12-11T01:05:34.047Z,16.38
2022-12-11T01:08:02.257Z,18.83
2022-12-11T01:10:30.515Z,22.88
2022-12-11T01:13:00.592Z,24.23
2022-12-11T01:15:30.629Z,19.88
2022-12-11T01:17:59.049Z,22.05
2022-12-11T01:20:29.262Z,21.80
2022-12-11T01:23:00.725Z,19.95
2022-12-11T01:25:29.533Z,19.85
2022-12-11T01:27:57.772Z,23.77
2022-12-11T01:30:27.144Z,34.90
2022-12-11T01:32:55.224Z,34.20
2022-12-11T01:35:23.495Z,24.35
2022-12-11T01:37:51.666Z,17.15
2022-12-11T01:40:25.200Z,19.77
2022-12-11T01:42:53.446Z,17.65
2022-12-11T01:45:30.075Z,18.00
2022-12-11T01:48:03.160Z,18.92
2022-12-11T01:50:34.144Z,17.42
2022-12-11T01:53:03.321Z,17.80
2022-12-11T01:55:33.698Z,18.48
2022-12-11T01:58:03.480Z,13.05
2022-12-11T02:00:31.564Z,16.40
2022-12-11T02:02:59.687Z,18.75
2022-12-11T02:05:27.812Z,16.13
2022-12-11T02:07:59.112Z,17.15
2022-12-11T02:10:39.637Z,18.45
2022-12-11T02:13:14.680Z,15.43
2022-12-11T02:15:51.068Z,18.55
2022-12-11T02:18:26.536Z,14.18
2022-12-11T02:21:02.331Z,16.80
2022-12-11T02:24:00.345Z,17.33
2022-12-11T02:27:10.336Z,15.40
2022-12-11T02:29:46.158Z,15.05
2022-12-11T02:32:20.443Z,17.33
2022-12-11T02:34:55.123Z,14.90
2022-12-11T02:37:26.187Z,16.88
2022-12-11T02:39:56.068Z,13.43
2022-12-11T02:42:29.418Z,15.45
2022-12-11T02:45:02.004Z,17.17
2022-12-11T02:47:32.379Z,16.25
2022-12-11T02:50:04.344Z,16.40
2022-12-11T02:52:33.554Z,12.80
2022-12-11T02:55:04.200Z,19.30
2022-12-11T02:57:39.308Z,18.42
2022-12-11T03:00:10.713Z,18.65
2022-12-11T03:02:39.457Z,17.58
2022-12-11T03:05:08.650Z,19.10
2022-12-11T03:07:39.978Z,25.42
2022-12-11T03:10:10.754Z,13.25
2022-12-11T03:12:42.445Z,15.43
2022-12-11T03:15:16.819Z,11.52
2022-12-11T03:17:57.671Z,14.60
2022-12-11T03:20:35.514Z,15.63
2022-12-11T03:23:12.415Z,17.58
2022-12-11T03:25:47.897Z,33.20
2022-12-11T03:28:20.082Z,31.70
2022-12-11T03:30:52.501Z,20.17
2022-12-11T03:33:25.652Z,14.90
2022-12-11T03:35:57.087Z,13.70
2022-12-11T03:38:30.078Z,12.70
2022-12-11T03:41:02.023Z,12.70
2022-12-11T03:43:32.099Z,10.50
2022-12-11T03:46:02.598Z,12.05
2022-12-11T03:48:37.148Z,10.93
2022-12-11T03:51:07.311Z,12.00
2022-12-11T03:53:36.812Z,11.07
2022-12-11T03:56:06.324Z,13.48
2022-12-11T03:58:34.410Z,12.80
2022-12-11T04:01:04.017Z,10.40
2022-12-11T04:03:32.216Z,10.80
2022-12-11T04:06:00.510Z,11.75
2022-12-11T04:08:28.790Z,12.45
2022-12-11T04:11:10.908Z,10.32
2022-12-11T04:13:39.425Z,9.60
2022-12-11T04:16:08.580Z,10.20
2022-12-11T04:18:54.237Z,10.13
2022-12-11T04:21:40.002Z,9.88
2022-12-11T04:24:17.766Z,9.25
2022-12-11T04:26:47.285Z,10.93
2022-12-11T04:29:16.290Z,11.50
2022-12-11T04:31:45.821Z,10.88
2022-12-11T04:34:14.287Z,11.55
2022-12-11T04:36:42.411Z,9.25
2022-12-11T04:39:10.552Z,9.65
2022-12-11T04:41:38.927Z,11.52
2022-12-11T04:44:07.089Z,11.10
2022-12-11T04:46:35.529Z,9.73
2022-12-11T04:49:04.935Z,10.55
2022-12-11T04:51:32.988Z,11.13
2022-12-11T04:54:01.050Z,11.20
2022-12-11T04:56:29.147Z,13.25
2022-12-11T04:58:57.151Z,11.15
2022-12-11T05:01:25.529Z,10.88
2022-12-11T05:03:53.694Z,10.93
2022-12-11T05:06:23.176Z,9.95
2022-12-11T05:08:51.209Z,8.70
2022-12-11T05:11:19.313Z,11.77
2022-12-11T05:13:47.897Z,10.00
2022-12-11T05:16:17.895Z,9.68
2022-12-11T05:18:47.439Z,9.70
2022-12-11T05:21:16.951Z,10.70
2022-12-11T05:23:46.405Z,11.40
2022-12-11T05:26:16.310Z,12.82
2022-12-11T05:28:45.353Z,10.85
2022-12-11T05:31:16.107Z,9.93
2022-12-11T05:33:44.875Z,9.02
2022-12-11T05:36:18.308Z,10.25
2022-12-11T05:38:48.150Z,10.55
2022-12-11T05:41:19.070Z,10.13
2022-12-11T05:43:47.196Z,11.02
2022-12-11T05:46:18.003Z,11.45
2022-12-11T05:48:48.248Z,11.80
2022-12-11T05:51:17.993Z,9.10
2022-12-11T05:53:49.330Z,13.00
2022-12-11T05:56:19.810Z,11.63
2022-12-11T05:58:49.040Z,12.10
2022-12-11T06:01:20.034Z,9.82
2022-12-11T06:03:48.533Z,13.82
2022-12-11T06:06:16.855Z,11.70
2022-12-11T06:08:45.180Z,11.63
2022-12-11T06:11:19.565Z,12.77
2022-12-11T06:13:50.471Z,13.90
2022-12-11T06:16:18.519Z,12.55
2022-12-11T06:18:47.050Z,13.35
2022-12-11T06:21:16.320Z,10.20
2022-12-11T06:23:45.261Z,11.02
2022-12-11T06:26:15.691Z,11.73
2022-12-11T06:28:43.991Z,14.10
2022-12-11T06:31:12.541Z,12.55
2022-12-11T06:33:40.885Z,12.65
2022-12-11T06:36:11.945Z,11.00
2022-12-11T06:38:40.673Z,12.15
2022-12-11T06:41:10.131Z,11.55
2022-12-11T06:43:41.215Z,11.20
2022-12-11T06:46:11.768Z,10.73
2022-12-11T06:48:42.167Z,15.50
2022-12-11T06:51:12.395Z,14.07
2022-12-11T06:53:40.809Z,11.40
2022-12-11T06:56:11.137Z,13.80
2022-12-11T06:58:41.293Z,14.07
2022-12-11T07:01:16.521Z,12.13
2022-12-11T07:03:44.702Z,14.13
2022-12-11T07:06:12.918Z,13.43
2022-12-11T07:08:41.357Z,10.02
2022-12-11T07:11:11.210Z,16.80
2022-12-11T07:13:42.111Z,11.75
2022-12-11T07:16:11.655Z,14.57
2022-12-11T07:18:41.510Z,12.00
2022-12-11T07:21:11.335Z,15.07
2022-12-11T07:23:40.209Z,13.55
2022-12-11T07:26:10.557Z,15.13
2022-12-11T07:28:40.500Z,13.45
2022-12-11T07:31:09.934Z,12.55
2022-12-11T07:33:38.347Z,11.65
2022-12-11T07:36:09.256Z,11.98
2022-12-11T07:38:37.683Z,13.02
2022-12-11T07:41:07.417Z,13.30
2022-12-11T07:43:36.178Z,13.82
2022-12-11T07:46:07.287Z,12.93
2022-12-11T07:48:36.952Z,15.00
2022-12-11T07:51:12.154Z,13.80
2022-12-11T07:53:40.225Z,12.93
2022-12-11T07:56:08.888Z,11.98
2022-12-11T07:58:38.854Z,15.07
2022-12-11T08:01:12.879Z,16.20
2022-12-11T08:03:42.121Z,12.98
2022-12-11T08:06:10.765Z,14.85
2022-12-11T08:08:39.844Z,12.73
2022-12-11T08:11:11.380Z,15.55
2022-12-11T08:13:41.521Z,15.35
2022-12-11T08:16:13.368Z,16.23
2022-12-11T08:18:42.728Z,12.68
2022-12-11T08:21:12.507Z,11.68
2022-12-11T08:23:40.679Z,12.32
2022-12-11T08:26:16.400Z,11.20
2022-12-11T08:28:44.731Z,13.18
2022-12-11T08:31:15.437Z,13.18
2022-12-11T08:33:44.433Z,16.10
2022-12-11T08:36:15.161Z,13.32
2022-12-11T08:38:43.788Z,12.93
2022-12-11T08:41:12.630Z,13.32
2022-12-11T08:43:41.422Z,11.57
2022-12-11T08:46:10.455Z,12.80
2022-12-11T08:48:42.026Z,13.82
2022-12-11T08:51:13.535Z,23.25
2022-12-11T08:53:41.797Z,15.75
2022-12-11T08:56:12.072Z,14.00
2022-12-11T08:58:40.659Z,11.90
2022-12-11T09:01:10.101Z,16.38
2022-12-11T09:03:40.681Z,13.52
2022-12-11T09:06:10.805Z,13.05
2022-12-11T09:08:39.776Z,13.35
2022-12-11T09:11:10.039Z,11.85
2022-12-11T09:13:38.519Z,11.45
2022-12-11T09:16:08.051Z,13.50
2022-12-11T09:18:36.488Z,10.30
2022-12-11T09:21:09.639Z,12.18
2022-12-11T09:23:38.407Z,10.13
2022-12-11T09:26:07.297Z,10.57
2022-12-11T09:28:35.739Z,20.10
2022-12-11T09:31:08.889Z,10.18
2022-12-11T09:33:37.102Z,9.52
2022-12-11T09:36:07.667Z,11.00
2022-12-11T09:38:36.899Z,11.18
2022-12-11T09:41:36.543Z,16.92
2022-12-11T09:44:21.260Z,14.48
2022-12-11T09:46:51.152Z,14.07
2022-12-11T09:49:28.188Z,10.98
2022-12-11T09:52:09.851Z,12.65
2022-12-11T09:54:38.985Z,11.65
2022-12-11T09:57:18.191Z,11.02
2022-12-11T10:00:04.811Z,9.25
2022-12-11T10:02:47.028Z,9.75
2022-12-11T10:05:22.293Z,10.40
2022-12-11T10:08:00.681Z,15.82
2022-12-11T10:10:38.054Z,9.93
2022-12-11T10:13:13.843Z,13.77
2022-12-11T10:15:47.568Z,13.20
2022-12-11T10:18:19.221Z,14.93
2022-12-11T10:20:48.420Z,11.40
2022-12-11T10:23:20.703Z,9.32
2022-12-11T10:25:53.617Z,8.52
2022-12-11T10:28:22.220Z,9.45
2022-12-11T10:30:56.649Z,12.25
2022-12-11T10:33:34.868Z,14.13
2022-12-11T10:36:02.965Z,13.35
2022-12-11T10:38:33.947Z,10.90
2022-12-11T10:41:04.846Z,10.82
2022-12-11T10:43:37.999Z,9.15
2022-12-11T10:46:08.208Z,9.43
2022-12-11T10:48:46.084Z,9.80
2022-12-11T10:51:15.580Z,11.05
2022-12-11T10:53:50.533Z,9.48
2022-12-11T10:56:27.181Z,8.10
2022-12-11T10:58:57.369Z,10.50
2022-12-11T11:01:28.793Z,10.23
2022-12-11T11:04:00.469Z,9.93
2022-12-11T11:06:29.073Z,11.15
2022-12-11T11:09:00.685Z,9.68
2022-12-11T11:11:34.003Z,11.20
2022-12-11T11:14:16.042Z,13.10
2022-12-11T11:16:46.570Z,9.27
2022-12-11T11:19:26.062Z,10.25
2022-12-11T11:21:58.530Z,11.10
2022-12-11T11:24:33.293Z,32.00
2022-12-11T11:27:13.338Z,17.83
2022-12-11T11:29:43.275Z,20.50
2022-12-11T11:32:21.633Z,23.42
2022-12-11T11:34:49.798Z,17.63
2022-12-11T11:37:26.972Z,17.75
2022-12-11T11:40:04.354Z,8.43
2022-12-11T11:42:44.021Z,7.72
2022-12-11T11:45:17.374Z,7.78
2022-12-11T11:47:54.075Z,10.02
2022-12-11T11:50:27.068Z,14.15
2022-12-11T11:53:01.804Z,18.52
2022-12-11T11:55:42.772Z,13.75
2022-12-11T11:58:16.635Z,10.25
2022-12-11T12:00:44.953Z,10.20
2022-12-11T12:03:17.534Z,8.93
2022-12-11T12:05:52.775Z,18.65
2022-12-11T12:08:32.889Z,11.50
2022-12-11T12:11:09.093Z,8.15
2022-12-11T12:13:50.592Z,9.32
2022-12-11T12:16:52.116Z,9.63
2022-12-11T12:19:28.018Z,11.57
2022-12-11T12:22:20.097Z,9.82
2022-12-11T12:24:56.962Z,9.73
2022-12-11T12:30:24.415Z,8.57
2022-12-11T12:33:21.559Z,9.63
2022-12-11T12:36:02.065Z,9.18
2022-12-11T12:38:41.863Z,10.07
2022-12-11T12:41:17.056Z,8.60
2022-12-11T12:44:01.118Z,9.45
2022-12-11T12:46:41.295Z,7.15
2022-12-11T12:49:16.886Z,6.18
2022-12-11T12:51:46.255Z,7.20
2022-12-11T12:54:19.296Z,8.05
2022-12-11T12:56:48.948Z,6.68
2022-12-11T12:59:24.066Z,6.95
2022-12-11T13:01:57.195Z,7.28
2022-12-11T13:04:56.907Z,9.48
2022-12-11T13:07:30.096Z,13.07
2022-12-11T13:10:02.318Z,10.48
2022-12-11T13:12:51.628Z,9.45
2022-12-11T13:15:39.081Z,68.72
2022-12-11T13:18:36.539Z,13.88
2022-12-11T13:21:25.512Z,15.23
2022-12-11T13:23:54.060Z,10.90
2022-12-11T13:26:31.064Z,11.48
2022-12-11T13:28:59.738Z,10.77
2022-12-11T13:31:37.597Z,9.77
2022-12-11T13:34:17.166Z,8.00
2022-12-11T13:36:49.839Z,10.05
2022-12-11T13:39:20.721Z,8.95
2022-12-11T13:41:53.306Z,18.92
2022-12-11T13:44:25.716Z,9.70
2022-12-11T13:46:58.282Z,8.80
2022-12-11T13:49:29.744Z,8.27
2022-12-11T13:51:59.812Z,5.88
2022-12-11T13:54:29.143Z,7.85
2022-12-11T13:57:03.724Z,8.43
2022-12-11T13:59:34.554Z,7.63
2022-12-11T14:02:07.122Z,7.90
2022-12-11T14:04:36.308Z,6.55
2022-12-11T14:07:08.850Z,10.40
2022-12-11T14:09:40.911Z,10.95
2022-12-11T14:12:17.720Z,7.43
2022-12-11T14:14:50.294Z,8.02
2022-12-11T14:17:27.090Z,9.55
2022-12-11T14:19:57.112Z,7.82
2022-12-11T14:22:27.426Z,8.25
2022-12-11T14:24:57.549Z,8.90
2022-12-11T14:27:27.423Z,9.77
2022-12-11T14:29:56.780Z,9.85
2022-12-11T14:32:33.210Z,9.75
2022-12-11T14:35:05.361Z,10.80
2022-12-11T14:37:36.000Z,12.60
2022-12-11T14:40:10.089Z,10.48
2022-12-11T14:42:42.564Z,8.45
2022-12-11T14:45:21.133Z,9.95
2022-12-11T14:47:52.970Z,11.30
2022-12-11T14:50:23.964Z,11.15
2022-12-11T14:52:55.008Z,10.50
2022-12-11T14:55:26.138Z,12.35
2022-12-11T14:58:00.707Z,14.05
2022-12-11T15:00:31.695Z,10.82
2022-12-11T15:03:03.647Z,9.10
2022-12-11T15:05:38.848Z,9.57
2022-12-11T15:08:25.686Z,12.50
2022-12-11T15:11:06.765Z,10.80
2022-12-11T15:13:37.519Z,14.45
2022-12-11T15:16:08.800Z,16.60
2022-12-11T15:18:42.288Z,17.08
2022-12-11T15:21:13.473Z,14.68
2022-12-11T15:23:52.929Z,18.70
2022-12-11T15:26:22.003Z,14.45
2022-12-11T15:29:01.214Z,14.30
2022-12-11T15:31:32.067Z,12.43
2022-12-11T15:34:01.797Z,15.05
2022-12-11T15:36:35.590Z,14.05
2022-12-11T15:39:05.641Z,14.68
2022-12-11T15:41:34.804Z,12.57
2022-12-11T15:44:04.938Z,13.80
2022-12-11T15:46:37.290Z,17.00
2022-12-11T15:49:13.727Z,23.55
2022-12-11T15:51:43.271Z,21.17
2022-12-11T15:54:11.800Z,17.75
2022-12-11T15:56:41.342Z,18.05
2022-12-11T15:59:11.130Z,21.40
2022-12-11T16:01:39.417Z,18.20
2022-12-11T16:04:08.979Z,16.83
2022-12-11T16:06:38.033Z,15.77
2022-12-11T16:09:06.567Z,15.85
2022-12-11T16:11:34.916Z,17.15
2022-12-11T16:14:04.689Z,19.52
2022-12-11T16:16:33.363Z,18.27
2022-12-11T16:19:02.223Z,17.10
2022-12-11T16:21:32.310Z,14.45
2022-12-11T16:24:00.955Z,19.40
2022-12-11T16:26:30.522Z,18.48
2022-12-11T16:28:59.650Z,18.65
2022-12-11T16:31:29.254Z,25.15
2022-12-11T16:33:58.211Z,26.48
2022-12-11T16:36:27.014Z,22.67
2022-12-11T16:38:57.142Z,19.77
2022-12-11T16:41:25.929Z,20.58
2022-12-11T16:43:55.329Z,22.67
2022-12-11T16:46:26.315Z,20.70
2022-12-11T16:48:55.361Z,20.33
2022-12-11T16:51:23.606Z,19.85
2022-12-11T16:53:51.811Z,25.23
2022-12-11T16:56:21.322Z,20.85
2022-12-11T16:58:49.849Z,25.40
2022-12-11T17:01:18.069Z,26.55
2022-12-11T17:03:46.367Z,22.42
2022-12-11T17:06:18.069Z,24.73
2022-12-11T17:08:46.711Z,20.63
2022-12-11T17:11:16.906Z,21.52
2022-12-11T17:13:46.844Z,20.77
2022-12-11T17:16:17.023Z,19.60
2022-12-11T17:18:45.367Z,21.73
2022-12-11T17:21:16.168Z,26.75
2022-12-11T17:23:44.531Z,20.27
2022-12-11T17:26:13.348Z,21.08
2022-12-11T17:28:41.450Z,19.23
2022-12-11T17:31:13.998Z,21.40
2022-12-11T17:33:42.250Z,24.92
2022-12-11T17:36:13.593Z,24.65
2022-12-11T17:38:41.793Z,27.10
2022-12-11T17:41:18.381Z,25.60
2022-12-11T17:43:48.851Z,27.73
2022-12-11T17:46:19.164Z,29.95
2022-12-11T17:48:47.664Z,23.98
2022-12-11T17:51:21.135Z,23.17
2022-12-11T17:53:49.526Z,27.65
2022-12-11T17:56:18.388Z,24.00
2022-12-11T17:58:46.619Z,24.45
2022-12-11T18:01:16.865Z,19.88
2022-12-11T18:03:47.112Z,28.77
2022-12-11T18:06:16.793Z,25.87
2022-12-11T18:08:46.357Z,25.38
2022-12-11T18:11:17.519Z,24.67
2022-12-11T18:13:46.722Z,29.58
2022-12-11T18:16:17.924Z,24.45
2022-12-11T18:18:48.618Z,24.90
2022-12-11T18:21:19.285Z,27.30
2022-12-11T18:23:47.998Z,25.15
2022-12-11T18:26:17.255Z,27.10
2022-12-11T18:28:46.684Z,24.77
2022-12-11T18:31:15.042Z,23.83
2022-12-11T18:33:44.846Z,26.42
2022-12-11T18:36:15.902Z,31.25
2022-12-11T18:38:45.562Z,27.83
2022-12-11T18:41:14.441Z,26.92
2022-12-11T18:43:43.256Z,28.38
2022-12-11T18:46:14.257Z,26.00
2022-12-11T18:48:43.011Z,26.70
2022-12-11T18:51:13.157Z,31.77
2022-12-11T18:53:42.830Z,34.42
2022-12-11T18:56:13.151Z,28.70
2022-12-11T18:58:41.845Z,29.05
2022-12-11T19:01:12.834Z,30.77
2022-12-11T19:03:41.348Z,30.08
2022-12-11T19:06:12.018Z,29.50
2022-12-11T19:08:42.317Z,30.30
2022-12-11T19:11:11.078Z,29.23
2022-12-11T19:13:39.184Z,29.40
2022-12-11T19:16:08.121Z,29.05
2022-12-11T19:18:36.263Z,32.55
2022-12-11T19:21:12.502Z,33.25
2022-12-11T19:23:43.733Z,33.72
2022-12-11T19:26:14.493Z,34.10
2022-12-11T19:28:43.691Z,34.17
2022-12-11T19:31:16.474Z,36.58
2022-12-11T19:33:46.794Z,32.75
2022-12-11T19:36:17.539Z,33.67
2022-12-11T19:38:47.357Z,31.25
2022-12-11T19:41:19.112Z,30.23
2022-12-11T19:43:47.358Z,35.20
2022-12-11T19:46:16.701Z,37.50
2022-12-11T19:48:45.335Z,41.00
2022-12-11T19:51:15.613Z,29.75
2022-12-11T19:53:48.093Z,29.08
2022-12-11T19:56:17.640Z,34.45
2022-12-11T19:58:46.342Z,35.15
2022-12-11T20:01:21.210Z,34.22
2022-12-11T20:03:51.414Z,24.58
2022-12-11T20:06:19.826Z,29.30
2022-12-11T20:08:49.627Z,24.15
2022-12-11T20:11:20.395Z,31.13
2022-12-11T20:13:49.548Z,26.58
2022-12-11T20:16:33.704Z,27.98
2022-12-11T20:19:08.962Z,34.25
2022-12-11T20:21:37.385Z,27.95
2022-12-11T20:24:07.882Z,28.23
2022-12-11T20:26:38.198Z,26.50
2022-12-11T20:29:08.427Z,24.40
2022-12-11T20:31:38.676Z,31.20
2022-12-11T20:34:07.753Z,27.60
2022-12-11T20:36:36.908Z,32.13
2022-12-11T20:39:06.763Z,25.73
2022-12-11T20:41:35.259Z,28.70
2022-12-11T20:44:03.805Z,24.38
2022-12-11T20:46:32.123Z,24.20
2022-12-11T20:49:00.461Z,30.00
2022-12-11T20:51:30.178Z,30.20
2022-12-11T20:53:59.674Z,25.40
2022-12-11T20:56:31.396Z,27.30
2022-12-11T20:59:01.388Z,25.92
2022-12-11T21:01:33.303Z,32.88
2022-12-11T21:04:01.728Z,32.15
2022-12-11T21:06:31.980Z,26.42
2022-12-11T21:09:01.348Z,29.02
2022-12-11T21:11:31.100Z,27.45
2022-12-11T21:13:59.444Z,31.05
2022-12-11T21:16:28.627Z,32.10
2022-12-11T21:18:58.844Z,28.60
2022-12-11T21:21:27.456Z,31.10
2022-12-11T21:23:55.925Z,29.38
2022-12-11T21:26:24.201Z,28.33
2022-12-11T21:28:54.118Z,25.73
2022-12-11T21:31:22.708Z,25.23
2022-12-11T21:33:50.926Z,27.95
2022-12-11T21:36:19.467Z,28.83
2022-12-11T21:38:48.170Z,25.23
2022-12-11T21:41:19.288Z,28.60
2022-12-11T21:46:38.933Z,27.40
2022-12-11T21:49:08.264Z,27.13
2022-12-11T21:51:43.927Z,26.30
2022-12-11T21:54:17.583Z,28.10
2022-12-11T21:56:46.567Z,25.67
2022-12-11T21:59:15.075Z,24.67
2022-12-11T22:01:47.143Z,30.17
2022-12-11T22:04:16.874Z,25.23
2022-12-11T22:06:47.279Z,30.83
2022-12-11T22:09:16.400Z,29.88
2022-12-11T22:11:46.216Z,24.02
2022-12-11T22:14:17.267Z,29.38
2022-12-11T22:16:47.263Z,26.08
2022-12-11T22:19:15.573Z,27.10
2022-12-11T22:21:44.015Z,25.48
2022-12-11T22:24:12.225Z,31.45
2022-12-11T22:26:40.646Z,28.30
2022-12-11T22:29:08.982Z,26.42
2022-12-11T22:31:37.179Z,27.27
2022-12-11T22:34:06.770Z,29.25
2022-12-11T22:36:34.904Z,25.20
2022-12-11T22:39:03.115Z,27.88
2022-12-11T22:41:33.408Z,25.15
2022-12-11T22:44:01.826Z,29.80
2022-12-11T22:46:31.203Z,23.88
2022-12-11T22:49:00.286Z,27.67
2022-12-11T22:51:29.814Z,30.90
2022-12-11T22:53:59.220Z,23.00
2022-12-11T22:56:27.887Z,25.92
2022-12-11T22:58:57.277Z,27.05
2022-12-11T23:01:27.493Z,26.60
2022-12-11T23:03:55.757Z,28.02
2022-12-11T23:06:25.123Z,23.45
2022-12-11T23:08:57.892Z,25.65
2022-12-11T23:11:28.331Z,22.67
2022-12-11T23:13:57.154Z,26.80
2022-12-11T23:16:26.867Z,27.27
2022-12-11T23:18:56.046Z,26.40
2022-12-11T23:21:25.111Z,27.50
2022-12-11T23:23:54.899Z,25.45
2022-12-11T23:26:23.362Z,27.63
2022-12-11T23:28:52.183Z,25.92
2022-12-11T23:31:20.690Z,26.38
2022-12-11T23:33:49.045Z,30.00
2022-12-11T23:36:17.672Z,27.27
2022-12-11T23:38:50.927Z,22.73
2022-12-11T23:41:24.287Z,25.65
2022-12-11T23:43:52.665Z,23.27
2022-12-11T23:46:22.948Z,23.55
2022-12-11T23:48:52.138Z,27.05
2022-12-11T23:51:22.201Z,22.67
2022-12-11T23:53:50.310Z,21.15
2022-12-11T23:56:20.395Z,21.05
2022-12-11T23:58:49.930Z,21.75
